createdAt,value
2022-09-17T00:01:14.072Z,1.70
2022-09-17T00:03:40.878Z,1.57
2022-09-17T00:06:09.935Z,1.23
2022-09-17T00:08:38.876Z,2.07
2022-09-17T00:11:17.590Z,1.80
2022-09-17T00:13:45.227Z,1.63
2022-09-17T00:16:12.993Z,1.97
2022-09-17T00:18:43.564Z,1.70
2022-09-17T00:21:20.478Z,2.30
2022-09-17T00:23:47.571Z,2.00
2022-09-17T00:26:14.984Z,2.17
2022-09-17T00:28:45.357Z,2.43
2022-09-17T00:31:12.328Z,2.27
2022-09-17T00:33:39.183Z,2.03
2022-09-17T00:36:06.687Z,2.53
2022-09-17T00:38:33.913Z,2.43
2022-09-17T00:41:01.839Z,2.77
2022-09-17T00:43:34.893Z,2.30
2022-09-17T00:46:02.720Z,3.10
2022-09-17T00:48:29.556Z,3.20
2022-09-17T00:50:58.504Z,2.80
2022-09-17T00:53:25.604Z,3.13
2022-09-17T00:55:59.572Z,3.00
2022-09-17T00:58:27.423Z,2.80
2022-09-17T01:00:54.375Z,3.30
2022-09-17T01:03:22.153Z,2.97
2022-09-17T01:06:09.264Z,3.10
2022-09-17T01:08:51.429Z,3.37
2022-09-17T01:11:36.784Z,2.60
2022-09-17T01:14:31.244Z,3.10
2022-09-17T01:17:06.160Z,3.37
2022-09-17T01:20:00.548Z,3.10
2022-09-17T01:23:10.336Z,3.60
2022-09-17T01:26:10.595Z,2.90
2022-09-17T01:28:58.363Z,3.57
2022-09-17T01:31:49.491Z,3.07
2022-09-17T01:34:22.581Z,3.27
2022-09-17T01:36:58.367Z,3.50
2022-09-17T01:39:39.722Z,3.87
2022-09-17T01:42:15.558Z,3.50
2022-09-17T01:45:29.358Z,4.00
2022-09-17T01:48:03.209Z,3.37
2022-09-17T01:50:48.797Z,3.47
2022-09-17T01:53:19.092Z,3.50
2022-09-17T01:55:49.418Z,4.27
2022-09-17T01:58:29.731Z,4.03
2022-09-17T02:01:02.908Z,4.20
2022-09-17T02:03:38.852Z,4.20
2022-09-17T02:06:13.342Z,3.90
2022-09-17T02:08:50.358Z,3.37
2022-09-17T02:11:18.524Z,4.33
2022-09-17T02:13:54.319Z,3.80
2022-09-17T02:16:36.044Z,2.53
2022-09-17T02:19:18.572Z,3.60
2022-09-17T02:21:54.547Z,3.63
2022-09-17T02:24:26.868Z,3.20
2022-09-17T02:27:05.543Z,3.10
2022-09-17T02:29:41.871Z,4.27
2022-09-17T02:32:09.862Z,3.60
2022-09-17T02:34:37.018Z,2.83
2022-09-17T02:37:04.922Z,3.43
2022-09-17T02:39:32.232Z,3.77
2022-09-17T02:42:23.903Z,3.03
2022-09-17T02:45:19.742Z,3.57
2022-09-17T02:47:46.449Z,3.07
2022-09-17T02:50:49.266Z,2.80
2022-09-17T02:53:42.333Z,3.40
2022-09-17T02:56:42.757Z,3.23
2022-09-17T02:59:16.439Z,2.97
2022-09-17T03:01:56.118Z,2.63
2022-09-17T03:04:25.365Z,3.53
2022-09-17T03:06:53.361Z,3.33
2022-09-17T03:09:20.223Z,3.10
2022-09-17T03:11:47.296Z,3.40
2022-09-17T03:14:14.046Z,2.87
2022-09-17T03:16:40.796Z,3.30
2022-09-17T03:19:08.264Z,3.80
2022-09-17T03:21:35.036Z,2.87
2022-09-17T03:24:02.109Z,3.13
2022-09-17T03:26:28.861Z,2.90
2022-09-17T03:28:55.612Z,2.60
2022-09-17T03:31:22.433Z,2.60
2022-09-17T03:33:50.198Z,2.80
2022-09-17T03:36:16.994Z,2.67
2022-09-17T03:38:43.946Z,2.27
2022-09-17T03:41:11.364Z,3.37
2022-09-17T03:43:39.856Z,3.13
2022-09-17T03:46:06.760Z,2.40
2022-09-17T03:48:37.082Z,3.30
2022-09-17T03:51:04.360Z,2.57
2022-09-17T03:53:31.798Z,3.00
2022-09-17T03:56:03.660Z,2.30
2022-09-17T03:58:31.248Z,3.23
2022-09-17T04:00:58.382Z,2.80
2022-09-17T04:03:26.075Z,2.93
2022-09-17T04:05:52.979Z,4.00
2022-09-17T04:08:20.257Z,2.63
2022-09-17T04:10:48.159Z,2.63
2022-09-17T04:13:16.792Z,2.77
2022-09-17T04:15:44.407Z,2.80
2022-09-17T04:18:11.892Z,3.40
2022-09-17T04:20:38.979Z,3.50
2022-09-17T04:23:07.310Z,3.73
2022-09-17T04:25:34.516Z,2.97
2022-09-17T04:28:01.420Z,3.33
2022-09-17T04:30:28.190Z,2.73
2022-09-17T04:32:55.037Z,3.23
2022-09-17T04:35:21.868Z,2.90
2022-09-17T04:37:58.567Z,2.47
2022-09-17T04:40:26.894Z,3.23
2022-09-17T04:43:03.232Z,2.77
2022-09-17T04:45:30.935Z,3.37
2022-09-17T04:47:57.696Z,2.63
2022-09-17T04:50:24.608Z,2.90
2022-09-17T04:52:51.370Z,2.90
2022-09-17T04:55:18.152Z,3.00
2022-09-17T04:57:49.640Z,2.97
2022-09-17T05:00:17.696Z,2.10
2022-09-17T05:02:47.422Z,2.67
2022-09-17T05:05:15.443Z,2.90
2022-09-17T05:07:42.540Z,2.73
2022-09-17T05:10:10.720Z,3.63
2022-09-17T05:12:37.796Z,2.57
2022-09-17T05:15:05.702Z,3.43
2022-09-17T05:17:33.035Z,2.60
2022-09-17T05:19:59.776Z,2.87
2022-09-17T05:22:26.495Z,2.40
2022-09-17T05:24:53.297Z,2.63
2022-09-17T05:27:20.000Z,3.23
2022-09-17T05:29:46.743Z,3.30
2022-09-17T05:32:13.712Z,2.30
2022-09-17T05:34:41.513Z,2.70
2022-09-17T05:37:11.294Z,3.17
2022-09-17T05:39:38.040Z,2.63
2022-09-17T05:42:04.910Z,2.80
2022-09-17T05:44:31.825Z,3.03
2022-09-17T05:46:59.232Z,3.40
2022-09-17T05:49:26.076Z,3.10
2022-09-17T05:51:52.903Z,2.50
2022-09-17T05:54:19.784Z,2.97
2022-09-17T05:56:46.626Z,3.03
2022-09-17T05:59:14.737Z,2.63
2022-09-17T06:01:42.492Z,3.57
2022-09-17T06:04:09.710Z,2.53
2022-09-17T06:06:37.892Z,2.43
2022-09-17T06:09:06.306Z,2.10
2022-09-17T06:11:33.160Z,3.27
2022-09-17T06:14:00.327Z,2.30
2022-09-17T06:16:27.438Z,2.30
2022-09-17T06:18:54.328Z,2.57
2022-09-17T06:21:24.297Z,2.53
2022-09-17T06:23:51.144Z,2.23
2022-09-17T06:26:18.682Z,2.37
2022-09-17T06:28:45.800Z,2.77
2022-09-17T06:31:13.700Z,1.80
2022-09-17T06:33:40.897Z,2.63
2022-09-17T06:36:13.753Z,2.37
2022-09-17T06:38:41.917Z,2.37
2022-09-17T06:41:08.894Z,1.90
2022-09-17T06:43:35.759Z,2.10
2022-09-17T06:46:06.111Z,2.27
2022-09-17T06:48:35.554Z,2.10
2022-09-17T06:51:04.479Z,2.53
2022-09-17T06:53:31.706Z,2.00
2022-09-17T06:56:05.234Z,2.43
2022-09-17T06:58:34.576Z,2.40
2022-09-17T07:01:02.438Z,2.20
2022-09-17T07:03:30.581Z,2.50
2022-09-17T07:05:58.301Z,2.00
2022-09-17T07:08:26.196Z,2.40
2022-09-17T07:10:57.684Z,2.63
2022-09-17T07:13:25.649Z,2.13
2022-09-17T07:15:57.919Z,1.87
2022-09-17T07:18:24.899Z,2.70
2022-09-17T07:20:56.741Z,2.37
2022-09-17T07:23:25.299Z,1.83
2022-09-17T07:25:56.968Z,1.90
2022-09-17T07:28:24.867Z,2.50
2022-09-17T07:30:53.332Z,2.10
2022-09-17T07:33:25.982Z,1.83
2022-09-17T07:36:00.814Z,1.90
2022-09-17T07:38:29.033Z,2.40
2022-09-17T07:41:00.955Z,1.90
2022-09-17T07:43:29.855Z,2.03
2022-09-17T07:46:01.085Z,1.97
2022-09-17T07:48:28.860Z,1.80
2022-09-17T07:50:59.780Z,1.97
2022-09-17T07:53:27.140Z,1.80
2022-09-17T07:55:55.962Z,2.43
2022-09-17T07:58:33.569Z,1.70
2022-09-17T08:01:02.136Z,2.40
2022-09-17T08:03:29.226Z,1.77
2022-09-17T08:06:05.413Z,2.20
2022-09-17T08:08:33.737Z,2.33
2022-09-17T08:11:06.390Z,2.20
2022-09-17T08:13:33.473Z,1.67
2022-09-17T08:16:09.634Z,2.20
2022-09-17T08:18:37.430Z,2.00
2022-09-17T08:21:05.929Z,2.20
2022-09-17T08:23:38.043Z,2.13
2022-09-17T08:26:08.985Z,1.90
2022-09-17T08:28:36.007Z,2.47
2022-09-17T08:31:05.084Z,1.90
2022-09-17T08:33:37.170Z,2.47
2022-09-17T08:36:05.298Z,2.47
2022-09-17T08:38:37.839Z,2.00
2022-09-17T08:41:11.347Z,1.77
2022-09-17T08:44:15.401Z,1.60
2022-09-17T08:46:50.647Z,1.90
2022-09-17T08:49:23.793Z,1.77
2022-09-17T08:52:08.058Z,1.70
2022-09-17T08:55:29.418Z,2.23
2022-09-17T08:58:27.180Z,1.90
2022-09-17T09:01:18.433Z,1.80
2022-09-17T09:04:03.665Z,1.97
2022-09-17T09:06:42.495Z,1.60
2022-09-17T09:09:34.720Z,1.83
2022-09-17T09:12:06.383Z,1.50
2022-09-17T09:14:49.181Z,1.33
2022-09-17T09:17:18.369Z,1.70
2022-09-17T09:19:46.604Z,1.60
2022-09-17T09:22:47.187Z,1.90
2022-09-17T09:25:24.993Z,1.63
2022-09-17T09:28:05.630Z,1.30
2022-09-17T09:31:13.537Z,1.70
2022-09-17T09:33:47.009Z,1.40
2022-09-17T09:36:16.534Z,1.77
2022-09-17T09:39:07.612Z,1.00
2022-09-17T09:41:46.118Z,1.30
2022-09-17T09:44:15.440Z,1.40
2022-09-17T09:47:03.530Z,0.90
2022-09-17T09:49:58.904Z,0.80
2022-09-17T09:53:00.620Z,1.10
2022-09-17T09:55:33.580Z,1.57
2022-09-17T09:58:27.778Z,1.20
2022-09-17T10:00:54.627Z,1.10
2022-09-17T10:03:32.383Z,1.00
2022-09-17T10:06:04.168Z,1.70
2022-09-17T10:08:34.804Z,1.20
2022-09-17T10:11:08.897Z,1.33
2022-09-17T10:13:37.127Z,1.00
2022-09-17T10:16:26.125Z,1.37
2022-09-17T10:19:08.044Z,1.20
2022-09-17T10:21:42.115Z,1.30
2022-09-17T10:24:27.689Z,1.43
2022-09-17T10:27:16.843Z,1.30
2022-09-17T10:29:46.115Z,1.20
2022-09-17T10:32:22.292Z,1.10
2022-09-17T10:35:14.828Z,1.17
2022-09-17T10:37:54.788Z,1.17
2022-09-17T10:40:21.721Z,1.20
2022-09-17T10:43:14.267Z,1.07
2022-09-17T10:45:44.900Z,1.17
2022-09-17T10:48:18.432Z,1.30
2022-09-17T10:50:53.972Z,1.20
2022-09-17T10:53:24.948Z,1.50
2022-09-17T10:56:19.068Z,0.87
2022-09-17T10:59:06.871Z,1.10
2022-09-17T11:01:34.291Z,1.47
2022-09-17T11:04:06.952Z,0.97
2022-09-17T11:07:11.173Z,0.80
2022-09-17T11:09:55.202Z,1.30
2022-09-17T11:12:30.674Z,1.00
2022-09-17T11:15:12.264Z,0.77
2022-09-17T11:17:41.890Z,1.20
2022-09-17T11:20:43.347Z,1.00
2022-09-17T11:23:31.663Z,0.70
2022-09-17T11:26:05.944Z,1.20
2022-09-17T11:28:35.839Z,0.87
2022-09-17T11:31:55.757Z,1.00
2022-09-17T11:34:32.962Z,0.70
2022-09-17T11:37:22.556Z,1.10
2022-09-17T11:39:58.439Z,0.90
2022-09-17T11:42:31.001Z,0.87
2022-09-17T11:45:04.365Z,1.03
2022-09-17T11:47:36.006Z,1.30
2022-09-17T11:50:28.159Z,1.20
2022-09-17T11:53:04.954Z,1.13
2022-09-17T11:55:40.112Z,0.90
2022-09-17T11:58:26.708Z,1.30
2022-09-17T12:01:06.028Z,1.00
2022-09-17T12:03:39.567Z,0.87
2022-09-17T12:06:13.405Z,0.87
2022-09-17T12:08:53.613Z,0.90
2022-09-17T12:11:33.513Z,1.27
2022-09-17T12:14:25.126Z,0.93
2022-09-17T12:17:00.397Z,1.17
2022-09-17T12:19:43.550Z,0.97
2022-09-17T12:22:17.346Z,1.20
2022-09-17T12:24:44.587Z,1.00
2022-09-17T12:27:17.346Z,1.00
2022-09-17T12:30:18.273Z,0.73
2022-09-17T12:33:03.341Z,0.70
2022-09-17T12:36:00.168Z,0.80
2022-09-17T12:38:25.975Z,0.80
2022-09-17T12:41:17.102Z,0.97
2022-09-17T12:44:14.936Z,0.97
2022-09-17T12:47:14.359Z,1.10
2022-09-17T12:50:02.361Z,1.30
2022-09-17T12:52:58.096Z,0.87
2022-09-17T12:55:42.876Z,1.40
2022-09-17T12:58:34.284Z,0.87
2022-09-17T13:01:10.618Z,1.00
2022-09-17T13:04:10.679Z,1.10
2022-09-17T13:06:37.422Z,0.60
2022-09-17T13:09:34.477Z,0.60
2022-09-17T13:12:22.758Z,0.60
2022-09-17T13:14:58.324Z,0.70
2022-09-17T13:17:36.367Z,1.00
2022-09-17T13:20:13.926Z,0.77
2022-09-17T13:22:49.558Z,1.00
2022-09-17T13:25:19.336Z,0.87
2022-09-17T13:27:47.898Z,0.90
2022-09-17T13:30:17.106Z,0.77
2022-09-17T13:32:46.433Z,0.97
2022-09-17T13:35:13.201Z,1.23
2022-09-17T13:37:50.455Z,0.80
2022-09-17T13:40:22.984Z,1.10
2022-09-17T13:42:57.409Z,1.20
2022-09-17T13:45:26.608Z,0.90
2022-09-17T13:48:11.505Z,1.10
2022-09-17T13:50:43.598Z,0.90
2022-09-17T13:53:16.670Z,0.87
2022-09-17T13:55:58.558Z,1.07
2022-09-17T13:58:30.299Z,0.70
2022-09-17T14:01:12.041Z,0.73
2022-09-17T14:03:43.731Z,0.77
2022-09-17T14:06:18.935Z,0.77
2022-09-17T14:08:46.683Z,0.77
2022-09-17T14:11:22.551Z,1.20
2022-09-17T14:14:05.295Z,1.00
2022-09-17T14:16:37.525Z,1.07
2022-09-17T14:19:17.006Z,1.10
2022-09-17T14:22:22.797Z,1.33
2022-09-17T14:24:54.387Z,1.03
2022-09-17T14:27:58.344Z,0.90
2022-09-17T14:30:32.023Z,0.83
2022-09-17T14:33:07.662Z,1.60
2022-09-17T14:35:42.820Z,1.30
2022-09-17T14:38:31.884Z,1.40
2022-09-17T14:41:17.864Z,1.60
2022-09-17T14:43:58.723Z,1.10
2022-09-17T14:46:48.885Z,1.40
2022-09-17T14:49:23.516Z,2.13
2022-09-17T14:51:52.223Z,1.10
2022-09-17T14:54:22.429Z,1.33
2022-09-17T14:57:22.716Z,1.57
2022-09-17T14:59:56.609Z,1.20
2022-09-17T15:02:38.853Z,1.77
2022-09-17T15:05:31.877Z,1.37
2022-09-17T15:08:21.340Z,1.40
2022-09-17T15:10:54.261Z,1.10
2022-09-17T15:13:27.491Z,1.77
2022-09-17T15:16:13.676Z,1.43
2022-09-17T15:18:43.866Z,2.07
2022-09-17T15:21:29.399Z,1.67
2022-09-17T15:24:01.017Z,1.70
2022-09-17T15:26:33.589Z,1.63
2022-09-17T15:29:01.801Z,1.50
2022-09-17T15:31:29.454Z,1.50
2022-09-17T15:34:00.924Z,1.40
2022-09-17T15:36:30.020Z,1.43
2022-09-17T15:38:56.859Z,1.80
2022-09-17T15:41:29.921Z,2.10
2022-09-17T15:44:30.162Z,1.67
2022-09-17T15:47:36.848Z,1.13
2022-09-17T15:50:25.127Z,1.57
2022-09-17T15:53:12.552Z,1.77
2022-09-17T15:55:46.009Z,0.93
2022-09-17T15:58:28.686Z,1.10
2022-09-17T16:01:17.048Z,1.40
2022-09-17T16:03:44.310Z,1.77
2022-09-17T16:06:20.053Z,2.00
2022-09-17T16:08:48.585Z,1.20
2022-09-17T16:11:20.287Z,1.40
2022-09-17T16:13:48.230Z,1.47
2022-09-17T16:16:20.815Z,1.27
2022-09-17T16:18:48.491Z,1.27
2022-09-17T16:21:16.399Z,1.60
2022-09-17T16:23:43.583Z,1.67
2022-09-17T16:26:26.531Z,1.33
2022-09-17T16:28:55.240Z,1.60
2022-09-17T16:31:22.192Z,1.50
2022-09-17T16:33:49.064Z,1.50
2022-09-17T16:36:19.277Z,1.70
2022-09-17T16:38:46.035Z,1.60
2022-09-17T16:41:12.960Z,1.33
2022-09-17T16:43:40.350Z,1.60
2022-09-17T16:46:10.817Z,1.17
2022-09-17T16:48:38.705Z,1.60
2022-09-17T16:51:09.981Z,1.57
2022-09-17T16:53:39.181Z,1.10
2022-09-17T16:56:13.489Z,1.40
2022-09-17T16:58:41.535Z,2.97
2022-09-17T17:01:09.432Z,1.90
2022-09-17T17:03:36.660Z,1.90
2022-09-17T17:06:03.887Z,1.50
2022-09-17T17:08:34.445Z,3.23
2022-09-17T17:11:01.596Z,2.30
2022-09-17T17:13:28.834Z,1.50
2022-09-17T17:15:55.661Z,1.90
2022-09-17T17:18:22.930Z,2.10
2022-09-17T17:20:50.133Z,2.57
2022-09-17T17:23:17.404Z,2.07
2022-09-17T17:25:44.193Z,2.93
2022-09-17T17:28:11.157Z,2.10
2022-09-17T17:30:38.694Z,2.17
2022-09-17T17:33:05.808Z,2.20
2022-09-17T17:35:32.665Z,1.93
2022-09-17T17:37:59.743Z,2.13
2022-09-17T17:40:26.702Z,2.00
2022-09-17T17:42:54.724Z,2.80
2022-09-17T17:45:21.947Z,2.73
2022-09-17T17:47:48.864Z,1.97
2022-09-17T17:50:15.962Z,2.90
2022-09-17T17:52:47.777Z,2.13
2022-09-17T17:55:16.096Z,2.67
2022-09-17T17:57:43.047Z,2.33
2022-09-17T18:00:11.964Z,1.57
2022-09-17T18:02:39.641Z,2.23
2022-09-17T18:05:07.261Z,2.03
2022-09-17T18:07:34.069Z,2.03
2022-09-17T18:10:00.924Z,1.40
2022-09-17T18:12:27.759Z,2.43
2022-09-17T18:14:54.700Z,1.77
2022-09-17T18:17:21.550Z,1.80
2022-09-17T18:19:48.484Z,2.07
2022-09-17T18:22:15.478Z,1.90
2022-09-17T18:24:42.193Z,1.47
2022-09-17T18:27:09.020Z,1.90
2022-09-17T18:29:35.754Z,1.87
2022-09-17T18:32:02.777Z,2.57
2022-09-17T18:34:29.608Z,2.13
2022-09-17T18:36:56.434Z,1.70
2022-09-17T18:39:57.088Z,1.60
2022-09-17T18:42:10.054Z,1.87
2022-09-17T18:44:36.982Z,2.17
2022-09-17T18:47:06.782Z,2.07
2022-09-17T18:49:33.658Z,2.03
2022-09-17T18:52:00.615Z,2.23
2022-09-17T18:54:27.347Z,2.10
2022-09-17T18:56:54.210Z,2.50
2022-09-17T18:59:20.950Z,2.00
2022-09-17T19:01:48.993Z,1.77
2022-09-17T19:04:15.854Z,2.30
2022-09-17T19:06:42.644Z,1.27
2022-09-17T19:09:09.409Z,2.77
2022-09-17T19:11:38.992Z,3.77
2022-09-17T19:14:05.779Z,1.30
2022-09-17T19:16:32.664Z,2.57
2022-09-17T19:18:59.480Z,1.23
2022-09-17T19:21:26.520Z,2.13
2022-09-17T19:23:53.760Z,1.70
2022-09-17T19:26:23.344Z,2.10
2022-09-17T19:28:58.753Z,1.70
2022-09-17T19:31:26.267Z,1.20
2022-09-17T19:33:53.288Z,2.50
2022-09-17T19:36:20.742Z,1.70
2022-09-17T19:38:48.305Z,1.10
2022-09-17T19:41:17.869Z,1.10
2022-09-17T19:43:47.935Z,1.77
2022-09-17T19:46:17.802Z,2.20
2022-09-17T19:48:55.933Z,1.47
2022-09-17T19:51:24.765Z,1.27
2022-09-17T19:53:52.912Z,1.40
2022-09-17T19:56:21.869Z,1.77
2022-09-17T19:58:49.042Z,1.50
2022-09-17T20:01:16.302Z,1.20
2022-09-17T20:03:45.172Z,1.60
2022-09-17T20:06:14.810Z,1.43
2022-09-17T20:08:49.596Z,1.10
2022-09-17T20:11:17.680Z,1.60
2022-09-17T20:13:44.724Z,1.77
2022-09-17T20:16:22.284Z,1.10
2022-09-17T20:18:50.082Z,1.33
2022-09-17T20:21:20.191Z,1.37
2022-09-17T20:23:47.494Z,1.67
2022-09-17T20:26:15.011Z,1.57
2022-09-17T20:28:42.261Z,1.40
2022-09-17T20:31:14.803Z,1.40
2022-09-17T20:33:42.208Z,1.30
2022-09-17T20:36:12.484Z,1.60
2022-09-17T20:41:27.678Z,1.43
2022-09-17T20:43:54.795Z,1.70
2022-09-17T20:46:28.321Z,1.70
2022-09-17T20:48:57.537Z,1.83
2022-09-17T20:51:27.212Z,1.40
2022-09-17T20:53:54.079Z,2.00
2022-09-17T20:56:27.878Z,1.53
2022-09-17T20:59:03.382Z,2.10
2022-09-17T21:01:34.493Z,2.73
2022-09-17T21:04:02.569Z,1.67
2022-09-17T21:06:38.009Z,1.53
2022-09-17T21:09:10.338Z,1.07
2022-09-17T21:11:37.227Z,1.80
2022-09-17T21:14:04.537Z,1.70
2022-09-17T21:16:31.446Z,1.57
2022-09-17T21:19:01.493Z,1.70
2022-09-17T21:21:29.138Z,1.87
2022-09-17T21:24:01.095Z,2.93
2022-09-17T21:26:28.068Z,2.30
2022-09-17T21:28:56.077Z,1.77
2022-09-17T21:31:32.605Z,3.90
2022-09-17T21:34:05.392Z,2.67
2022-09-17T21:36:34.316Z,2.47
2022-09-17T21:39:03.997Z,2.77
2022-09-17T21:41:31.412Z,2.30
2022-09-17T21:43:58.666Z,1.57
2022-09-17T21:46:32.001Z,1.60
2022-09-17T21:49:02.336Z,1.50
2022-09-17T21:51:30.713Z,1.43
2022-09-17T21:54:05.090Z,2.50
2022-09-17T21:56:32.501Z,2.57
2022-09-17T21:59:02.174Z,1.27
2022-09-17T22:01:34.308Z,1.50
2022-09-17T22:04:02.104Z,1.90
2022-09-17T22:06:31.306Z,1.67
2022-09-17T22:08:59.862Z,1.63
2022-09-17T22:11:33.634Z,1.63
2022-09-17T22:14:09.004Z,1.77
2022-09-17T22:16:38.241Z,1.60
2022-09-17T22:19:06.613Z,1.33
2022-09-17T22:21:36.095Z,1.67
2022-09-17T22:24:04.122Z,1.90
2022-09-17T22:26:33.321Z,1.93
2022-09-17T22:29:05.701Z,1.73
2022-09-17T22:31:34.919Z,1.90
2022-09-17T22:34:02.413Z,1.83
2022-09-17T22:36:29.716Z,1.33
2022-09-17T22:38:58.511Z,1.67
2022-09-17T22:41:31.581Z,1.70
2022-09-17T22:44:09.484Z,1.83
2022-09-17T22:46:41.056Z,1.73
2022-09-17T22:49:09.832Z,1.30
2022-09-17T22:51:38.970Z,1.93
2022-09-17T22:54:06.833Z,1.50
2022-09-17T22:56:37.969Z,1.70
2022-09-17T22:59:05.041Z,1.80
2022-09-17T23:01:36.224Z,1.77
2022-09-17T23:04:05.277Z,1.90
2022-09-17T23:06:35.784Z,1.50
2022-09-17T23:09:02.878Z,1.90
2022-09-17T23:11:36.601Z,1.33
2022-09-17T23:14:08.238Z,1.67
2022-09-17T23:16:40.456Z,1.63
2022-09-17T23:19:07.630Z,1.40
2022-09-17T23:21:34.899Z,1.60
2022-09-17T23:24:03.254Z,1.53
2022-09-17T23:26:30.587Z,1.30
2022-09-17T23:29:01.150Z,1.83
2022-09-17T23:31:30.940Z,1.50
2022-09-17T23:33:59.295Z,1.77
2022-09-17T23:36:30.701Z,1.10
2022-09-17T23:38:58.759Z,1.33
2022-09-17T23:41:29.806Z,1.40
2022-09-17T23:43:59.620Z,1.30
2022-09-17T23:46:28.484Z,1.60
2022-09-17T23:48:55.330Z,1.47
2022-09-17T23:51:23.870Z,1.57
2022-09-17T23:53:50.872Z,1.87
2022-09-17T23:56:21.323Z,1.90
2022-09-17T23:58:49.325Z,1.50
